River Plate Estuary, Argentina
Current Conditions -  °F | °C
As of 3:10 PM on Friday 21 Nov 2014 (Local Time) from SUMU Reporting Station
Light Rain Light Rain  
Wind Chill: 18°   Ceiling: 1700
Heat Index: 18°   Visibility: 1.8mi
Dew Point: 16°   Wind: 13mph
Humidity: 88%   Direction: 130°SE
Pressure: 29.91"   Gusts: NA
Location:  35°S, 57°W
Report Text: SUMU 211810Z 13011KT 3000 -RA BR BKN017 OVC070 18/16 Q1013
Loading
Personal Weather Stations






























Interactive Weather Map New forecast layout! Learn more

10-Day Weather Forecast

Advertisements
Track Severe Weather on mobile